sensor_id;sensor_type;location;lat;lon;timestamp;pressure;altitude;pressure_sealevel;temperature;humidity
48622;BME280;34421;48.944;9.460;2023-05-03T00:02:18;99308.78;;;11.53;66.38
48622;BME280;34421;48.944;9.460;2023-05-03T00:04:44;99313.28;;;11.52;66.17
48622;BME280;34421;48.944;9.460;2023-05-03T00:07:10;99311.66;;;11.51;66.07
48622;BME280;34421;48.944;9.460;2023-05-03T00:09:35;99315.72;;;11.47;66.81
48622;BME280;34421;48.944;9.460;2023-05-03T00:12:01;99315.47;;;11.42;66.25
48622;BME280;34421;48.944;9.460;2023-05-03T00:14:26;99318.09;;;11.35;66.59
48622;BME280;34421;48.944;9.460;2023-05-03T00:16:52;99315.63;;;11.34;66.70
48622;BME280;34421;48.944;9.460;2023-05-03T00:19:17;99317.22;;;11.28;67.16
48622;BME280;34421;48.944;9.460;2023-05-03T00:21:43;99315.97;;;11.24;66.41
48622;BME280;34421;48.944;9.460;2023-05-03T00:24:09;99313.69;;;11.21;66.66
48622;BME280;34421;48.944;9.460;2023-05-03T00:26:34;99314.53;;;11.22;67.05
48622;BME280;34421;48.944;9.460;2023-05-03T00:28:59;99315.97;;;11.24;66.94
48622;BME280;34421;48.944;9.460;2023-05-03T00:31:25;99309.63;;;11.25;66.90
48622;BME280;34421;48.944;9.460;2023-05-03T00:33:50;99315.13;;;11.24;66.60
48622;BME280;34421;48.944;9.460;2023-05-03T00:36:15;99312.25;;;11.18;66.34
48622;BME280;34421;48.944;9.460;2023-05-03T00:38:41;99310.97;;;11.14;66.58
48622;BME280;34421;48.944;9.460;2023-05-03T00:41:08;99310.16;;;11.14;66.07
48622;BME280;34421;48.944;9.460;2023-05-03T00:43:34;99310.53;;;11.11;66.72
48622;BME280;34421;48.944;9.460;2023-05-03T00:46:00;99308.06;;;11.09;66.94
48622;BME280;34421;48.944;9.460;2023-05-03T00:48:28;99304.78;;;11.07;66.42
48622;BME280;34421;48.944;9.460;2023-05-03T00:50:55;99300.66;;;11.05;66.89
48622;BME280;34421;48.944;9.460;2023-05-03T00:53:22;99300.81;;;11.03;66.49
48622;BME280;34421;48.944;9.460;2023-05-03T00:55:51;99298.16;;;11.03;66.28
48622;BME280;34421;48.944;9.460;2023-05-03T00:58:16;99299.56;;;10.99;67.42
48622;BME280;34421;48.944;9.460;2023-05-03T01:00:42;99295.47;;;10.97;66.64
48622;BME280;34421;48.944;9.460;2023-05-03T01:03:07;99295.66;;;10.95;67.14
48622;BME280;34421;48.944;9.460;2023-05-03T01:05:50;99292.34;;;10.93;66.44
48622;BME280;34421;48.944;9.460;2023-05-03T01:08:30;99294.75;;;10.88;67.40
48622;BME280;34421;48.944;9.460;2023-05-03T01:11:01;99291.63;;;10.78;67.81
48622;BME280;34421;48.944;9.460;2023-05-03T01:18:53;99291.88;;;10.83;67.81
48622;BME280;34421;48.944;9.460;2023-05-03T01:21:20;99292.09;;;10.88;66.65
48622;BME280;34421;48.944;9.460;2023-05-03T01:24:02;99290.72;;;10.92;67.07
48622;BME280;34421;48.944;9.460;2023-05-03T01:26:28;99288.66;;;10.94;66.78
48622;BME280;34421;48.944;9.460;2023-05-03T01:28:54;99287.28;;;10.98;67.06
48622;BME280;34421;48.944;9.460;2023-05-03T01:31:33;99273.50;;;10.94;66.32
48622;BME280;34421;48.944;9.460;2023-05-03T01:36:35;99278.41;;;10.91;66.78
48622;BME280;34421;48.944;9.460;2023-05-03T01:39:07;99274.28;;;10.88;67.34
48622;BME280;34421;48.944;9.460;2023-05-03T01:41:34;99271.00;;;10.86;67.45
48622;BME280;34421;48.944;9.460;2023-05-03T01:44:02;99269.91;;;10.81;67.84
48622;BME280;34421;48.944;9.460;2023-05-03T01:46:28;99274.59;;;10.79;67.97
48622;BME280;34421;48.944;9.460;2023-05-03T01:48:53;99274.72;;;10.70;67.97
48622;BME280;34421;48.944;9.460;2023-05-03T01:51:18;99269.19;;;10.65;67.50
48622;BME280;34421;48.944;9.460;2023-05-03T01:53:44;99273.88;;;10.63;67.30
48622;BME280;34421;48.944;9.460;2023-05-03T01:56:09;99271.59;;;10.60;68.09
48622;BME280;34421;48.944;9.460;2023-05-03T01:58:35;99273.97;;;10.55;68.07
48622;BME280;34421;48.944;9.460;2023-05-03T02:01:00;99278.69;;;10.53;68.11
48622;BME280;34421;48.944;9.460;2023-05-03T02:03:25;99271.09;;;10.50;68.41
48622;BME280;34421;48.944;9.460;2023-05-03T02:05:51;99271.47;;;10.47;67.78
48622;BME280;34421;48.944;9.460;2023-05-03T02:08:16;99271.66;;;10.45;67.93
48622;BME280;34421;48.944;9.460;2023-05-03T02:10:44;99271.38;;;10.40;68.33
48622;BME280;34421;48.944;9.460;2023-05-03T02:13:09;99273.44;;;10.38;68.94
48622;BME280;34421;48.944;9.460;2023-05-03T02:15:35;99278.66;;;10.32;68.85
48622;BME280;34421;48.944;9.460;2023-05-03T02:18:00;99273.72;;;10.29;68.88
48622;BME280;34421;48.944;9.460;2023-05-03T02:20:26;99263.06;;;10.29;68.23
48622;BME280;34421;48.944;9.460;2023-05-03T02:22:52;99272.06;;;10.27;69.15
48622;BME280;34421;48.944;9.460;2023-05-03T02:25:17;99274.06;;;10.25;68.62
48622;BME280;34421;48.944;9.460;2023-05-03T02:27:42;99274.25;;;10.24;69.32
48622;BME280;34421;48.944;9.460;2023-05-03T02:30:08;99274.66;;;10.21;69.25
48622;BME280;34421;48.944;9.460;2023-05-03T02:32:33;99280.50;;;10.16;69.59
48622;BME280;34421;48.944;9.460;2023-05-03T02:34:58;99282.91;;;10.11;69.04
48622;BME280;34421;48.944;9.460;2023-05-03T02:37:24;99282.09;;;10.11;69.44
48622;BME280;34421;48.944;9.460;2023-05-03T02:39:51;99291.91;;;10.10;69.49
48622;BME280;34421;48.944;9.460;2023-05-03T02:42:16;99284.94;;;10.09;69.66
48622;BME280;34421;48.944;9.460;2023-05-03T02:44:42;99286.97;;;10.07;69.15
48622;BME280;34421;48.944;9.460;2023-05-03T02:47:08;99285.50;;;10.04;69.55
48622;BME280;34421;48.944;9.460;2023-05-03T02:49:33;99273.38;;;10.02;69.85
48622;BME280;34421;48.944;9.460;2023-05-03T02:51:59;99278.09;;;10.00;70.11
48622;BME280;34421;48.944;9.460;2023-05-03T02:54:24;99273.31;;;9.95;69.43
48622;BME280;34421;48.944;9.460;2023-05-03T02:56:50;99278.19;;;9.92;70.17
48622;BME280;34421;48.944;9.460;2023-05-03T02:59:15;99278.56;;;9.89;69.54
48622;BME280;34421;48.944;9.460;2023-05-03T03:01:40;99280.56;;;9.87;69.99
48622;BME280;34421;48.944;9.460;2023-05-03T03:04:06;99286.00;;;9.78;70.25
48622;BME280;34421;48.944;9.460;2023-05-03T03:06:31;99285.91;;;9.72;70.33
48622;BME280;34421;48.944;9.460;2023-05-03T03:08:56;99273.56;;;9.64;70.56
48622;BME280;34421;48.944;9.460;2023-05-03T03:11:22;99277.56;;;9.60;70.40
48622;BME280;34421;48.944;9.460;2023-05-03T03:13:48;99283.47;;;9.55;70.36
48622;BME280;34421;48.944;9.460;2023-05-03T03:16:13;99283.00;;;9.52;71.00
48622;BME280;34421;48.944;9.460;2023-05-03T03:18:39;99278.22;;;9.47;70.64
48622;BME280;34421;48.944;9.460;2023-05-03T03:21:04;99290.25;;;9.43;70.09
48622;BME280;34421;48.944;9.460;2023-05-03T03:23:29;99282.44;;;9.42;70.60
48622;BME280;34421;48.944;9.460;2023-05-03T03:25:55;99274.66;;;9.40;71.78
48622;BME280;34421;48.944;9.460;2023-05-03T03:28:20;99281.78;;;9.40;70.73
48622;BME280;34421;48.944;9.460;2023-05-03T03:30:46;99285.84;;;9.35;71.34
48622;BME280;34421;48.944;9.460;2023-05-03T03:33:11;99288.84;;;9.32;70.74
48622;BME280;34421;48.944;9.460;2023-05-03T03:35:37;99288.19;;;9.30;71.56
48622;BME280;34421;48.944;9.460;2023-05-03T03:38:03;99285.75;;;9.29;71.41
48622;BME280;34421;48.944;9.460;2023-05-03T03:40:28;99282.63;;;9.25;71.23
48622;BME280;34421;48.944;9.460;2023-05-03T03:42:54;99294.59;;;9.21;71.26
48622;BME280;34421;48.944;9.460;2023-05-03T03:45:19;99295.63;;;9.20;71.89
48622;BME280;34421;48.944;9.460;2023-05-03T03:47:45;99299.28;;;9.19;71.06
48622;BME280;34421;48.944;9.460;2023-05-03T03:50:10;99297.00;;;9.16;72.13
48622;BME280;34421;48.944;9.460;2023-05-03T03:52:35;99304.97;;;9.16;72.05
48622;BME280;34421;48.944;9.460;2023-05-03T03:55:01;99298.19;;;9.13;71.60
48622;BME280;34421;48.944;9.460;2023-05-03T03:57:26;99305.31;;;9.13;71.91
48622;BME280;34421;48.944;9.460;2023-05-03T03:59:55;99304.47;;;9.12;71.26
48622;BME280;34421;48.944;9.460;2023-05-03T04:02:20;99301.38;;;9.09;71.59
48622;BME280;34421;48.944;9.460;2023-05-03T04:04:45;99303.38;;;9.07;71.82
48622;BME280;34421;48.944;9.460;2023-05-03T04:07:11;99299.06;;;9.06;72.05
48622;BME280;34421;48.944;9.460;2023-05-03T04:09:37;99297.44;;;9.05;71.65
48622;BME280;34421;48.944;9.460;2023-05-03T04:12:02;99302.75;;;9.05;72.07
48622;BME280;34421;48.944;9.460;2023-05-03T04:14:28;99298.41;;;9.04;71.81
48622;BME280;34421;48.944;9.460;2023-05-03T04:16:53;99306.75;;;9.01;71.72
48622;BME280;34421;48.944;9.460;2023-05-03T04:19:18;99302.28;;;9.01;70.91
48622;BME280;34421;48.944;9.460;2023-05-03T04:21:46;99310.41;;;9.00;71.15
48622;BME280;34421;48.944;9.460;2023-05-03T04:24:14;99307.75;;;9.00;70.44
48622;BME280;34421;48.944;9.460;2023-05-03T04:26:40;99301.63;;;8.99;71.12
48622;BME280;34421;48.944;9.460;2023-05-03T04:29:05;99313.72;;;9.02;71.06
48622;BME280;34421;48.944;9.460;2023-05-03T04:31:31;99317.22;;;9.02;70.73
48622;BME280;34421;48.944;9.460;2023-05-03T04:33:56;99322.97;;;9.06;70.68
48622;BME280;34421;48.944;9.460;2023-05-03T04:36:22;99325.13;;;9.10;70.73
48622;BME280;34421;48.944;9.460;2023-05-03T04:38:50;99323.38;;;9.18;71.01
48622;BME280;34421;48.944;9.460;2023-05-03T04:41:15;99332.09;;;9.26;70.79
48622;BME280;34421;48.944;9.460;2023-05-03T04:43:41;99335.06;;;9.31;70.36
48622;BME280;34421;48.944;9.460;2023-05-03T04:46:07;99341.28;;;9.39;70.27
48622;BME280;34421;48.944;9.460;2023-05-03T04:48:32;99340.19;;;9.48;70.86
48622;BME280;34421;48.944;9.460;2023-05-03T04:51:00;99340.13;;;9.56;70.40
48622;BME280;34421;48.944;9.460;2023-05-03T04:53:25;99339.38;;;9.62;70.99
48622;BME280;34421;48.944;9.460;2023-05-03T04:55:50;99346.44;;;9.70;70.29
48622;BME280;34421;48.944;9.460;2023-05-03T04:58:16;99346.09;;;9.73;70.48
48622;BME280;34421;48.944;9.460;2023-05-03T05:00:41;99348.19;;;9.77;70.27
48622;BME280;34421;48.944;9.460;2023-05-03T05:03:07;99347.44;;;9.84;70.29
48622;BME280;34421;48.944;9.460;2023-05-03T05:05:32;99347.53;;;9.90;69.75
48622;BME280;34421;48.944;9.460;2023-05-03T05:07:58;99337.97;;;9.96;69.07
48622;BME280;34421;48.944;9.460;2023-05-03T05:10:23;99340.28;;;9.99;69.38
48622;BME280;34421;48.944;9.460;2023-05-03T05:12:49;99340.00;;;10.09;69.54
48622;BME280;34421;48.944;9.460;2023-05-03T05:15:15;99345.56;;;10.14;68.59
48622;BME280;34421;48.944;9.460;2023-05-03T05:17:40;99342.38;;;10.18;68.88
48622;BME280;34421;48.944;9.460;2023-05-03T05:20:06;99343.13;;;10.27;68.77
48622;BME280;34421;48.944;9.460;2023-05-03T05:22:36;99347.50;;;10.35;69.38
48622;BME280;34421;48.944;9.460;2023-05-03T05:25:02;99344.47;;;10.38;68.36
48622;BME280;34421;48.944;9.460;2023-05-03T05:27:27;99355.38;;;10.43;68.95
48622;BME280;34421;48.944;9.460;2023-05-03T05:29:53;99350.59;;;10.53;68.79
48622;BME280;34421;48.944;9.460;2023-05-03T05:32:18;99349.63;;;10.61;67.81
48622;BME280;34421;48.944;9.460;2023-05-03T05:34:44;99344.63;;;10.72;67.55
48622;BME280;34421;48.944;9.460;2023-05-03T05:37:13;99348.81;;;10.82;66.92
48622;BME280;34421;48.944;9.460;2023-05-03T05:39:38;99355.03;;;10.89;67.46
48622;BME280;34421;48.944;9.460;2023-05-03T05:42:03;99344.63;;;10.94;67.83
48622;BME280;34421;48.944;9.460;2023-05-03T05:44:29;99355.97;;;11.03;67.80
48622;BME280;34421;48.944;9.460;2023-05-03T05:46:55;99348.19;;;11.01;67.49
48622;BME280;34421;48.944;9.460;2023-05-03T05:49:20;99348.78;;;11.03;67.35
48622;BME280;34421;48.944;9.460;2023-05-03T05:51:45;99351.59;;;11.16;67.02
48622;BME280;34421;48.944;9.460;2023-05-03T05:54:10;99353.53;;;11.29;66.32
48622;BME280;34421;48.944;9.460;2023-05-03T05:56:36;99355.63;;;11.34;66.73
48622;BME280;34421;48.944;9.460;2023-05-03T05:59:01;99359.16;;;11.41;65.45
48622;BME280;34421;48.944;9.460;2023-05-03T06:01:29;99346.72;;;11.48;65.61
48622;BME280;34421;48.944;9.460;2023-05-03T06:03:56;99352.31;;;11.60;64.51
48622;BME280;34421;48.944;9.460;2023-05-03T06:06:21;99353.56;;;11.64;64.57
48622;BME280;34421;48.944;9.460;2023-05-03T06:08:46;99348.03;;;11.66;64.22
48622;BME280;34421;48.944;9.460;2023-05-03T06:11:14;99350.31;;;11.69;63.91
48622;BME280;34421;48.944;9.460;2023-05-03T06:13:39;99343.19;;;11.76;65.04
48622;BME280;34421;48.944;9.460;2023-05-03T06:16:06;99346.69;;;11.83;64.35
48622;BME280;34421;48.944;9.460;2023-05-03T06:18:31;99354.16;;;11.88;64.09
48622;BME280;34421;48.944;9.460;2023-05-03T06:20:56;99353.81;;;12.04;63.77
48622;BME280;34421;48.944;9.460;2023-05-03T06:23:22;99350.00;;;12.20;63.05
48622;BME280;34421;48.944;9.460;2023-05-03T06:25:47;99352.47;;;12.28;63.66
48622;BME280;34421;48.944;9.460;2023-05-03T06:28:12;99351.50;;;12.42;63.12
48622;BME280;34421;48.944;9.460;2023-05-03T06:30:38;99354.81;;;12.44;62.78
48622;BME280;34421;48.944;9.460;2023-05-03T06:33:03;99346.63;;;12.52;62.65
48622;BME280;34421;48.944;9.460;2023-05-03T06:35:28;99349.94;;;12.61;62.35
48622;BME280;34421;48.944;9.460;2023-05-03T06:37:55;99354.47;;;12.74;61.72
48622;BME280;34421;48.944;9.460;2023-05-03T06:40:20;99357.38;;;12.92;61.35
48622;BME280;34421;48.944;9.460;2023-05-03T06:42:48;99360.28;;;13.11;61.01
48622;BME280;34421;48.944;9.460;2023-05-03T06:45:14;99352.91;;;13.39;59.95
48622;BME280;34421;48.944;9.460;2023-05-03T06:47:39;99352.09;;;15.94;55.63
48622;BME280;34421;48.944;9.460;2023-05-03T06:50:06;99337.81;;;20.39;46.94
48622;BME280;34421;48.944;9.460;2023-05-03T06:52:32;99335.91;;;23.76;39.65
48622;BME280;34421;48.944;9.460;2023-05-03T06:54:58;99336.94;;;26.17;33.62
48622;BME280;34421;48.944;9.460;2023-05-03T06:57:23;99325.91;;;27.95;30.48
48622;BME280;34421;48.944;9.460;2023-05-03T06:59:49;99326.63;;;29.55;28.97
48622;BME280;34421;48.944;9.460;2023-05-03T07:02:16;99325.72;;;30.83;27.05
48622;BME280;34421;48.944;9.460;2023-05-03T07:04:42;99317.94;;;32.14;25.21
48622;BME280;34421;48.944;9.460;2023-05-03T07:07:07;99318.75;;;33.19;23.62
48622;BME280;34421;48.944;9.460;2023-05-03T07:09:32;99315.00;;;34.18;22.34
48622;BME280;34421;48.944;9.460;2023-05-03T07:11:58;99307.31;;;35.21;20.98
48622;BME280;34421;48.944;9.460;2023-05-03T07:14:23;99301.53;;;36.05;19.85
48622;BME280;34421;48.944;9.460;2023-05-03T07:16:48;99306.59;;;36.73;19.42
48622;BME280;34421;48.944;9.460;2023-05-03T07:19:14;99297.69;;;37.46;18.62
48622;BME280;34421;48.944;9.460;2023-05-03T07:21:39;99297.81;;;37.99;17.74
48622;BME280;34421;48.944;9.460;2023-05-03T07:24:04;99294.97;;;38.52;17.17
48622;BME280;34421;48.944;9.460;2023-05-03T07:26:32;99288.94;;;38.77;16.52
48622;BME280;34421;48.944;9.460;2023-05-03T07:28:57;99283.75;;;39.53;16.31
48622;BME280;34421;48.944;9.460;2023-05-03T07:31:22;99285.06;;;40.22;16.29
48622;BME280;34421;48.944;9.460;2023-05-03T07:33:49;99282.41;;;40.43;15.11
48622;BME280;34421;48.944;9.460;2023-05-03T07:36:14;99286.09;;;40.62;14.58
48622;BME280;34421;48.944;9.460;2023-05-03T07:38:39;99272.41;;;40.42;14.75
48622;BME280;34421;48.944;9.460;2023-05-03T07:41:05;99289.38;;;40.96;14.43
48622;BME280;34421;48.944;9.460;2023-05-03T07:43:31;99282.25;;;41.06;14.14
48622;BME280;34421;48.944;9.460;2023-05-03T07:45:56;99279.50;;;41.45;14.19
48622;BME280;34421;48.944;9.460;2023-05-03T07:48:21;99273.88;;;42.02;13.46
48622;BME280;34421;48.944;9.460;2023-05-03T07:50:47;99272.63;;;42.25;13.60
48622;BME280;34421;48.944;9.460;2023-05-03T07:53:12;99280.28;;;42.10;13.57
48622;BME280;34421;48.944;9.460;2023-05-03T07:55:38;99282.59;;;42.44;13.23
48622;BME280;34421;48.944;9.460;2023-05-03T07:58:03;99272.88;;;42.70;13.04
48622;BME280;34421;48.944;9.460;2023-05-03T08:00:29;99270.72;;;42.99;12.81
48622;BME280;34421;48.944;9.460;2023-05-03T08:02:54;99273.56;;;43.51;13.01
48622;BME280;34421;48.944;9.460;2023-05-03T08:05:20;99274.56;;;43.75;11.90
48622;BME280;34421;48.944;9.460;2023-05-03T08:07:48;99266.06;;;43.86;12.37
48622;BME280;34421;48.944;9.460;2023-05-03T08:10:14;99263.94;;;44.35;12.15
48622;BME280;34421;48.944;9.460;2023-05-03T08:12:40;99266.28;;;44.40;12.06
48622;BME280;34421;48.944;9.460;2023-05-03T08:15:06;99263.09;;;44.38;11.96
48622;BME280;34421;48.944;9.460;2023-05-03T08:17:39;99253.44;;;44.73;11.56
48622;BME280;34421;48.944;9.460;2023-05-03T08:20:05;99255.16;;;45.45;11.51
48622;BME280;34421;48.944;9.460;2023-05-03T08:22:32;99258.44;;;45.87;11.16
48622;BME280;34421;48.944;9.460;2023-05-03T08:24:57;99256.81;;;46.69;10.58
48622;BME280;34421;48.944;9.460;2023-05-03T08:27:23;99262.03;;;46.87;10.35
48622;BME280;34421;48.944;9.460;2023-05-03T08:29:50;99260.78;;;47.24;10.58
48622;BME280;34421;48.944;9.460;2023-05-03T08:32:16;99259.91;;;47.44;10.06
48622;BME280;34421;48.944;9.460;2023-05-03T08:34:41;99269.72;;;46.87;10.12
48622;BME280;34421;48.944;9.460;2023-05-03T08:37:07;99259.69;;;46.26;10.63
48622;BME280;34421;48.944;9.460;2023-05-03T08:39:32;99255.13;;;47.08;10.59
48622;BME280;34421;48.944;9.460;2023-05-03T08:41:57;99270.03;;;47.25;9.75
48622;BME280;34421;48.944;9.460;2023-05-03T08:44:27;99260.28;;;45.27;11.11
48622;BME280;34421;48.944;9.460;2023-05-03T08:46:53;99248.22;;;46.17;10.75
48622;BME280;34421;48.944;9.460;2023-05-03T08:49:19;99273.84;;;46.22;10.17
48622;BME280;34421;48.944;9.460;2023-05-03T08:51:45;99269.09;;;45.01;10.84
48622;BME280;34421;48.944;9.460;2023-05-03T08:54:13;99274.53;;;43.30;12.42
48622;BME280;34421;48.944;9.460;2023-05-03T08:56:40;99262.75;;;43.98;12.08
48622;BME280;34421;48.944;9.460;2023-05-03T08:59:06;99261.81;;;45.31;11.71
48622;BME280;34421;48.944;9.460;2023-05-03T09:01:36;99273.06;;;45.78;10.67
48622;BME280;34421;48.944;9.460;2023-05-03T09:04:02;99267.44;;;45.78;10.45
48622;BME280;34421;48.944;9.460;2023-05-03T09:06:28;99277.56;;;45.52;10.56
48622;BME280;34421;48.944;9.460;2023-05-03T09:08:54;99268.97;;;44.82;10.88
48622;BME280;34421;48.944;9.460;2023-05-03T09:11:21;99268.03;;;45.19;11.23
48622;BME280;34421;48.944;9.460;2023-05-03T09:13:47;99266.69;;;45.27;10.92
48622;BME280;34421;48.944;9.460;2023-05-03T09:16:21;99283.88;;;41.85;12.55
48622;BME280;34421;48.944;9.460;2023-05-03T09:19:03;99273.09;;;41.30;13.32
48622;BME280;34421;48.944;9.460;2023-05-03T09:21:30;99281.91;;;41.93;13.11
48622;BME280;34421;48.944;9.460;2023-05-03T09:23:56;99277.09;;;41.11;13.37
48622;BME280;34421;48.944;9.460;2023-05-03T09:26:34;99279.78;;;40.79;13.87
48622;BME280;34421;48.944;9.460;2023-05-03T09:29:01;99273.91;;;40.18;14.25
48622;BME280;34421;48.944;9.460;2023-05-03T09:31:28;99272.38;;;39.73;14.26
48622;BME280;34421;48.944;9.460;2023-05-03T09:33:55;99279.16;;;38.29;15.75
48622;BME280;34421;48.944;9.460;2023-05-03T09:36:21;99270.19;;;38.13;15.94
48622;BME280;34421;48.944;9.460;2023-05-03T09:38:47;99273.47;;;36.07;17.11
48622;BME280;34421;48.944;9.460;2023-05-03T09:41:13;99266.75;;;36.08;16.99
48622;BME280;34421;48.944;9.460;2023-05-03T09:43:50;99274.97;;;34.40;18.65
48622;BME280;34421;48.944;9.460;2023-05-03T09:46:16;99282.16;;;33.10;19.48
48622;BME280;34421;48.944;9.460;2023-05-03T09:48:41;99283.09;;;33.14;19.48
48622;BME280;34421;48.944;9.460;2023-05-03T09:51:08;99280.91;;;32.23;21.33
48622;BME280;34421;48.944;9.460;2023-05-03T09:53:36;99279.63;;;33.05;20.88
48622;BME280;34421;48.944;9.460;2023-05-03T09:56:07;99268.78;;;35.59;18.42
48622;BME280;34421;48.944;9.460;2023-05-03T09:58:34;99268.28;;;34.82;19.23
48622;BME280;34421;48.944;9.460;2023-05-03T10:01:00;99262.38;;;35.27;18.74
48622;BME280;34421;48.944;9.460;2023-05-03T10:03:46;99258.75;;;37.19;17.34
48622;BME280;34421;48.944;9.460;2023-05-03T10:09:04;99233.94;;;40.98;14.97
48622;BME280;34421;48.944;9.460;2023-05-03T10:11:32;99233.63;;;42.81;13.13
48622;BME280;34421;48.944;9.460;2023-05-03T10:13:58;99232.53;;;43.72;12.45
48622;BME280;34421;48.944;9.460;2023-05-03T10:16:28;99238.31;;;42.14;13.01
48622;BME280;34421;48.944;9.460;2023-05-03T10:19:15;99237.31;;;39.24;14.93
48622;BME280;34421;48.944;9.460;2023-05-03T10:24:36;99233.03;;;38.89;15.52
48622;BME280;34421;48.944;9.460;2023-05-03T10:27:05;99236.22;;;36.82;16.93
48622;BME280;34421;48.944;9.460;2023-05-03T10:32:37;99225.50;;;40.62;14.08
48622;BME280;34421;48.944;9.460;2023-05-03T10:35:11;99223.47;;;42.34;13.08
48622;BME280;34421;48.944;9.460;2023-05-03T10:37:39;99232.78;;;41.10;13.13
48622;BME280;34421;48.944;9.460;2023-05-03T10:40:10;99240.03;;;37.89;15.75
48622;BME280;34421;48.944;9.460;2023-05-03T10:42:42;99240.97;;;35.40;17.56
48622;BME280;34421;48.944;9.460;2023-05-03T10:45:08;99232.34;;;33.89;19.49
48622;BME280;34421;48.944;9.460;2023-05-03T10:47:43;99230.78;;;35.76;18.42
48622;BME280;34421;48.944;9.460;2023-05-03T10:55:11;99233.19;;;34.30;18.87
48622;BME280;34421;48.944;9.460;2023-05-03T10:57:42;99233.44;;;32.81;19.15
48622;BME280;34421;48.944;9.460;2023-05-03T11:00:18;99229.91;;;31.96;20.99
48622;BME280;34421;48.944;9.460;2023-05-03T11:05:21;99219.19;;;34.63;18.65
48622;BME280;34421;48.944;9.460;2023-05-03T11:07:48;99212.22;;;36.70;16.74
48622;BME280;34421;48.944;9.460;2023-05-03T11:10:17;99203.47;;;38.13;15.89
48622;BME280;34421;48.944;9.460;2023-05-03T11:12:43;99202.94;;;39.05;15.00
48622;BME280;34421;48.944;9.460;2023-05-03T11:15:09;99203.22;;;38.25;15.25
48622;BME280;34421;48.944;9.460;2023-05-03T11:17:36;99202.50;;;35.67;17.09
48622;BME280;34421;48.944;9.460;2023-05-03T11:20:04;99212.78;;;33.45;18.38
48622;BME280;34421;48.944;9.460;2023-05-03T11:22:33;99210.31;;;32.19;19.73
48622;BME280;34421;48.944;9.460;2023-05-03T11:24:58;99205.06;;;31.46;20.06
48622;BME280;34421;48.944;9.460;2023-05-03T11:27:26;99201.50;;;30.90;21.74
48622;BME280;34421;48.944;9.460;2023-05-03T11:29:52;99195.53;;;30.01;21.99
48622;BME280;34421;48.944;9.460;2023-05-03T11:32:25;99198.41;;;29.29;23.09
48622;BME280;34421;48.944;9.460;2023-05-03T11:34:51;99198.19;;;28.63;23.52
48622;BME280;34421;48.944;9.460;2023-05-03T11:37:16;99196.72;;;28.21;23.44
48622;BME280;34421;48.944;9.460;2023-05-03T11:39:41;99188.50;;;27.85;24.23
48622;BME280;34421;48.944;9.460;2023-05-03T11:42:07;99193.38;;;27.33;24.68
48622;BME280;34421;48.944;9.460;2023-05-03T11:44:32;99186.53;;;27.02;24.21
48622;BME280;34421;48.944;9.460;2023-05-03T11:46:58;99195.88;;;26.69;25.49
48622;BME280;34421;48.944;9.460;2023-05-03T11:49:24;99194.19;;;26.35;25.44
48622;BME280;34421;48.944;9.460;2023-05-03T11:51:50;99191.97;;;25.99;25.26
48622;BME280;34421;48.944;9.460;2023-05-03T11:54:16;99199.41;;;25.94;25.34
48622;BME280;34421;48.944;9.460;2023-05-03T11:56:41;99180.13;;;25.66;26.07
48622;BME280;34421;48.944;9.460;2023-05-03T11:59:07;99194.66;;;25.61;26.54
48622;BME280;34421;48.944;9.460;2023-05-03T12:01:32;99184.38;;;25.53;26.08
48622;BME280;34421;48.944;9.460;2023-05-03T12:03:59;99177.78;;;25.78;26.79
48622;BME280;34421;48.944;9.460;2023-05-03T12:06:26;99181.63;;;25.77;27.69
48622;BME280;34421;48.944;9.460;2023-05-03T12:08:54;99182.69;;;25.57;27.14
48622;BME280;34421;48.944;9.460;2023-05-03T12:11:20;99175.63;;;25.56;26.10
48622;BME280;34421;48.944;9.460;2023-05-03T12:13:57;99164.81;;;25.46;26.53
48622;BME280;34421;48.944;9.460;2023-05-03T12:16:24;99171.34;;;25.26;26.54
48622;BME280;34421;48.944;9.460;2023-05-03T12:18:53;99164.91;;;24.88;27.18
48622;BME280;34421;48.944;9.460;2023-05-03T12:21:20;99169.19;;;24.65;27.93
48622;BME280;34421;48.944;9.460;2023-05-03T12:23:46;99161.91;;;24.60;28.84
48622;BME280;34421;48.944;9.460;2023-05-03T12:26:14;99162.91;;;24.69;29.83
48622;BME280;34421;48.944;9.460;2023-05-03T12:28:40;99158.84;;;24.67;27.98
48622;BME280;34421;48.944;9.460;2023-05-03T12:31:05;99158.63;;;24.63;27.82
48622;BME280;34421;48.944;9.460;2023-05-03T12:33:30;99170.06;;;24.89;27.75
48622;BME280;34421;48.944;9.460;2023-05-03T12:35:57;99156.00;;;25.06;28.31
48622;BME280;34421;48.944;9.460;2023-05-03T12:38:22;99170.56;;;24.96;27.41
48622;BME280;34421;48.944;9.460;2023-05-03T12:40:47;99159.50;;;24.83;27.29
48622;BME280;34421;48.944;9.460;2023-05-03T12:43:13;99161.03;;;24.65;27.85
48622;BME280;34421;48.944;9.460;2023-05-03T12:45:38;99156.56;;;24.45;28.13
48622;BME280;34421;48.944;9.460;2023-05-03T12:48:04;99150.97;;;24.26;29.19
48622;BME280;34421;48.944;9.460;2023-05-03T12:50:29;99154.16;;;23.99;29.55
48622;BME280;34421;48.944;9.460;2023-05-03T12:52:55;99154.28;;;23.78;29.10
48622;BME280;34421;48.944;9.460;2023-05-03T12:55:20;99155.38;;;23.67;28.64
48622;BME280;34421;48.944;9.460;2023-05-03T12:57:46;99151.00;;;23.81;29.12
48622;BME280;34421;48.944;9.460;2023-05-03T13:00:12;99142.22;;;23.95;29.52
48622;BME280;34421;48.944;9.460;2023-05-03T13:02:37;99132.66;;;24.02;28.92
48622;BME280;34421;48.944;9.460;2023-05-03T13:05:03;99138.41;;;23.96;28.40
48622;BME280;34421;48.944;9.460;2023-05-03T13:07:28;99134.19;;;23.74;28.90
48622;BME280;34421;48.944;9.460;2023-05-03T13:09:54;99144.56;;;23.62;28.90
48622;BME280;34421;48.944;9.460;2023-05-03T13:12:20;99133.16;;;23.55;28.19
48622;BME280;34421;48.944;9.460;2023-05-03T13:14:50;99123.19;;;23.35;28.56
48622;BME280;34421;48.944;9.460;2023-05-03T13:17:16;99127.25;;;23.37;28.74
48622;BME280;34421;48.944;9.460;2023-05-03T13:19:44;99117.91;;;23.64;29.17
48622;BME280;34421;48.944;9.460;2023-05-03T13:22:11;99120.22;;;23.91;28.84
48622;BME280;34421;48.944;9.460;2023-05-03T13:24:36;99123.75;;;23.92;29.10